createdAt,value
2022-12-17T00:03:41.089Z,25.62
2022-12-17T00:18:40.493Z,25.75
2022-12-17T00:33:40.373Z,26.03
2022-12-17T00:48:40.364Z,25.98
2022-12-17T01:18:40.681Z,26.16
2022-12-17T01:33:40.709Z,24.96
2022-12-17T01:48:40.668Z,23.61
2022-12-17T02:03:39.998Z,23.25
2022-12-17T02:18:40.364Z,22.47
2022-12-17T02:33:40.252Z,22.43
2022-12-17T02:48:39.890Z,22.01
2022-12-17T03:33:40.732Z,18.06
2022-12-17T03:48:45.782Z,17.78
2022-12-17T04:18:40.230Z,13.41
2022-12-17T04:33:40.206Z,13.12
2022-12-17T04:48:40.262Z,12.51
2022-12-17T05:03:41.085Z,9.88
2022-12-17T05:18:40.588Z,8.98
2022-12-17T05:33:39.960Z,8.32
2022-12-17T05:48:40.679Z,30.58
2022-12-17T06:03:41.014Z,12
2022-12-17T06:18:40.068Z,6.15
2022-12-17T06:33:40.263Z,6.89
2022-12-17T06:48:40.475Z,6.02
2022-12-17T07:03:40.151Z,5.68
2022-12-17T07:18:40.682Z,5.37
2022-12-17T07:33:40.053Z,5.2
2022-12-17T08:03:41.115Z,7.68
2022-12-17T08:18:40.017Z,10.35
2022-12-17T08:33:40.060Z,20.41
2022-12-17T08:48:40.128Z,12.07
2022-12-17T09:33:40.642Z,13.84
2022-12-17T09:48:40.654Z,18.87
2022-12-17T10:03:40.539Z,15.26
2022-12-17T10:18:40.760Z,18.62
2022-12-17T10:33:40.030Z,15.69
2022-12-17T11:03:40.345Z,17.56
2022-12-17T11:18:40.452Z,25.32
2022-12-17T11:33:40.093Z,24.15
2022-12-17T11:48:40.724Z,24.79
2022-12-17T12:03:40.724Z,26.91
2022-12-17T12:18:40.447Z,29.95
2022-12-17T12:33:40.012Z,33.43
2022-12-17T12:48:40.619Z,32.93
2022-12-17T13:03:40.375Z,31.74
2022-12-17T13:18:40.580Z,29.55
2022-12-17T13:33:40.529Z,32.65
2022-12-17T13:48:40.717Z,33.55
2022-12-17T14:04:04.907Z,34.13
2022-12-17T14:18:40.104Z,25.07
2022-12-17T14:33:40.338Z,28.14
2022-12-17T14:48:40.347Z,24.6
2022-12-17T15:03:40.192Z,30.53
2022-12-17T15:18:40.605Z,22.33
2022-12-17T15:33:40.724Z,20.52
2022-12-17T15:48:46.475Z,26.31
2022-12-17T16:03:40.174Z,28.72
2022-12-17T16:18:40.504Z,26.52
2022-12-17T16:48:41.681Z,25.65
2022-12-17T17:03:40.120Z,26.77
2022-12-17T17:18:40.490Z,26.5
2022-12-17T17:33:40.128Z,23.74
2022-12-17T17:48:40.807Z,20.88
2022-12-17T18:33:40.496Z,16.39
2022-12-17T18:48:40.617Z,15.39
2022-12-17T19:18:40.630Z,17.99
2022-12-17T19:48:43.725Z,12.23
2022-12-17T21:48:42.064Z,8.2
2022-12-17T22:34:16.053Z,5.6
2022-12-17T22:48:40.770Z,5.46
2022-12-17T23:18:45.040Z,4
2022-12-17T23:33:40.802Z,2.68
2022-12-17T23:48:44.978Z,2.34
